Flight Track Log - Related Links

Times and Time Zones

All times are in EDT time to prevent confusion due to time zone crossing. See the FLX100 flight status page for this flight to view local times or setup timezone preferences in your user account.

Time Position Orientation Groundspeed Altitude Reporting Facility
EDT Latitude Longitude Course Direction KTS MPH feet Rate Location/Type
Fri 05:09:13 PM 28.5500 -81.3167 41° Northeast 107 123 400  Level Orlando TRACON
Fri 05:10:13 PM 28.5667 -81.3000 41° Northeast 115 132 1,500 600 Climbing Orlando TRACON
Fri 05:11:13 PM 28.6000 -81.2667 360° North 157 181 1,600 248 Climbing Orlando TRACON
Fri 05:12:14 PM 28.6333 -81.2667 307° West 147 169 2,000 397 Climbing Orlando TRACON
Fri 05:13:14 PM 28.6667 -81.3167 319° Northwest 154 177 2,400 650 Climbing Orlando TRACON
Fri 05:14:14 PM 28.6833 -81.3333 360° North 127 146 3,300 991 Climbing Orlando TRACON
Fri 05:15:09 PM 28.7167 -81.3333 336° Northwest 123 142 4,300 843 Climbing Orlando TRACON
Fri 05:16:15 PM 28.7500 -81.3500 360° North 123 142 5,000 333 Climbing Orlando TRACON
Fri 05:17:15 PM 28.8000 -81.3500 352° North 156 180 5,000 507 Level Orlando TRACON
Fri 05:18:37 PM 28.8397 -81.3567 354° North 130 150 6,200 803 Climbing Jacksonville Center
Fri 05:19:37 PM 28.8733 -81.3608 351° North 127 146 6,900 417 Climbing Jacksonville Center
Fri 05:20:32 PM 28.9108 -81.3675 353° North 143 165 7,000 52 Climbing Jacksonville Center
Fri 05:21:33 PM 28.9569 -81.3739 358° North 163 188 7,000  Level Jacksonville Center
Fri 05:22:34 PM 29.0028 -81.3756 352° North 166 191 7,000  Level Jacksonville Center
Fri 05:23:35 PM 29.0553 -81.3842 356° North 173 199 7,000  Level Jacksonville Center
Fri 05:24:36 PM 29.1033 -81.3883 354° North 171 197 7,000  Level Jacksonville Center
Fri 05:25:43 PM 29.1533 -81.3947 351° North 170 196 7,000  Level Jacksonville Center
Fri 05:26:43 PM 29.2014 -81.4033 356° North 168 193 7,000  Level Jacksonville Center
Fri 05:27:44 PM 29.2494 -81.4075 358° North 167 192 7,000  Level Jacksonville Center
Fri 05:28:45 PM 29.2975 -81.4092 356° North 170 196 7,000  Level Jacksonville Center
Fri 05:29:46 PM 29.3436 -81.4131 358° North 170 196 7,000  Level Jacksonville Center
Fri 05:30:53 PM 29.3958 -81.4147 352° North 172 198 7,000  Level Jacksonville Center
Fri 05:31:54 PM 29.4481 -81.4236 355° North 171 197 7,000  Level Jacksonville Center
Fri 05:32:49 PM 29.4878 -81.4278 356° North 171 197 7,000  Level Jacksonville Center
Fri 05:33:49 PM 29.5378 -81.4317 356° North 171 197 7,000  Level Jacksonville Center
Fri 05:34:50 PM 29.5858 -81.4358 358° North 171 197 7,000  Level Jacksonville Center
Fri 05:35:51 PM 29.6339 -81.4375 356° North 169 194 7,000  Level Jacksonville Center
Fri 05:36:52 PM 29.6800 -81.4417 353° North 166 191 7,000  Level Jacksonville Center
Fri 05:37:53 PM 29.7239 -81.4481 355° North 164 189 7,000  Level Jacksonville Center
Fri 05:38:47 PM 29.7656 -81.4522 358° North 163 188 7,000  Level Jacksonville Center
Fri 05:39:54 PM 29.8178 -81.4539 353° North 163 188 7,000 47 Level Jacksonville Center
Fri 05:40:55 PM 29.8639 -81.4603 356° North 165 190 7,100 49 Climbing Jacksonville Center
Fri 05:41:57 PM 29.9119 -81.4644 353° North 165 190 7,100  Level Jacksonville Center
Fri 05:42:58 PM 29.9581 -81.4708 353° North 166 191 7,100  Level Jacksonville Center
Fri 05:43:59 PM 30.0061 -81.4775 358° North 162 186 7,100 -47 Level Jacksonville Center
Fri 05:45:06 PM 30.0561 -81.4792 353° North 173 199 7,000  Descending Jacksonville Center
Fri 05:46:07 PM 30.1042 -81.4856 353° North 164 189 7,100  Climbing Jacksonville Center
Fri 05:47:08 PM 30.1481 -81.4922 356° North 164 189 7,000 -49 Descending Jacksonville Center
Fri 05:48:09 PM 30.1942 -81.4964 356° North 164 189 7,000  Level Jacksonville Center
Fri 05:49:10 PM 30.2400 -81.5006 358° North 165 190 7,000  Level Jacksonville Center
Fri 05:50:11 PM 30.2881 -81.5022 North 164 189 7,000  Level Jacksonville Center
Fri 05:51:06 PM 30.3278 -81.5017 358° North 163 188 7,000  Level Jacksonville Center
Fri 05:52:07 PM 30.3717 -81.5033 North 156 180 7,000 49 Level Jacksonville Center
Fri 05:53:08 PM 30.4175 -81.5003 North 163 188 7,100  Climbing Jacksonville Center
Fri 05:54:09 PM 30.4656 -81.4994 North 163 188 7,000 -49 Descending Jacksonville Center
Fri 05:55:10 PM 30.5094 -81.4964 10° North 163 188 7,000  Level Jacksonville Center
Fri 05:56:10 PM 30.5572 -81.4861 12° North 164 189 7,000  Level Jacksonville Center
Fri 05:56:46 PM 30.5781 -81.4811 North 163 188 7,000  Level Jacksonville Center
Fri 05:57:46 PM 30.6219 -81.4803 North 158 182 7,000  Level Jacksonville Center
Fri 05:58:46 PM 30.6658 -81.4772 North 158 182 7,000 50 Level Jacksonville Center
Fri 05:59:46 PM 30.7117 -81.4742 North 158 182 7,100 50 Climbing Jacksonville Center
Fri 06:00:46 PM 30.7556 -81.4689 North 158 182 7,100 -50 Level Jacksonville Center
Fri 06:01:46 PM 30.7992 -81.4633 North 158 182 7,000 -50 Descending Jacksonville Center
Fri 06:02:46 PM 30.8431 -81.4603 North 158 182 7,000  Level Jacksonville Center
Fri 06:03:46 PM 30.8847 -81.4594 North 158 182 7,000  Level Jacksonville Center
Fri 06:04:46 PM 30.9286 -81.4539 North 158 182 7,000 50 Level Jacksonville Center
Fri 06:05:46 PM 30.9725 -81.4486 North 158 182 7,100 50 Climbing Jacksonville Center
Fri 06:06:46 PM 31.0183 -81.4453 North 158 182 7,100  Level Jacksonville Center
Fri 06:07:46 PM 31.0600 -81.4400 12° North 158 182 7,100 -50 Level Jacksonville Center
Fri 06:08:46 PM 31.1119 -81.4269 12° North 163 188 7,000 -50 Descending Jacksonville Center
Fri 06:09:46 PM 31.1517 -81.4167 10° North 158 182 7,000  Level Jacksonville Center
Fri 06:10:46 PM 31.2017 -81.4061 18° North 158 182 7,000  Level Jacksonville Center
Fri 06:11:46 PM 31.2431 -81.3908 16° North 158 182 7,000 50 Level Jacksonville Center
Fri 06:12:46 PM 31.2889 -81.3756 13° North 165 190 7,100 50 Climbing Jacksonville Center
Fri 06:13:46 PM 31.3264 -81.3653 North 158 182 7,100  Level Jacksonville Center
Fri 06:14:46 PM 31.3722 -81.3572 15° North 158 182 7,100  Level Jacksonville Center
Fri 06:15:46 PM 31.4222 -81.3417 21° North 164 189 7,100  Level Jacksonville Center
Fri 06:16:46 PM 31.4658 -81.3217 34° Northeast 164 189 7,100  Level Jacksonville Center
Fri 06:17:46 PM 31.5031 -81.2917 40° Northeast 164 189 7,100  Level Jacksonville Center
Fri 06:18:46 PM 31.5358 -81.2594 37° Northeast 164 189 7,100  Level Jacksonville Center
Fri 06:19:46 PM 31.5753 -81.2247 39° Northeast 164 189 7,100  Level Jacksonville Center
Fri 06:20:46 PM 31.6122 -81.1897 37° Northeast 164 189 7,100  Level Jacksonville Center
Fri 06:21:46 PM 31.6494 -81.1572 31° Northeast 164 189 7,100  Level Jacksonville Center
Fri 06:22:46 PM 31.6844 -81.1322 37° Northeast 164 189 7,100  Level Jacksonville Center
Fri 06:30:15 PM 31.9375 -80.9042 38° Northeast  Level FlightAware Approximate
Fri 06:31:15 PM 31.9712 -80.8736 38° Northeast  Level FlightAware Approximate
Fri 06:32:15 PM 32.0050 -80.8430 38° Northeast  Level FlightAware Approximate
Fri 06:33:15 PM 32.0388 -80.8124 38° Northeast  Level FlightAware Approximate
Fri 06:34:15 PM 32.0725 -80.7818 38° Northeast  Level FlightAware Approximate
Fri 06:35:15 PM 32.1063 -80.7511 38° Northeast  Level FlightAware Approximate
Fri 06:36:15 PM 32.1400 -80.7204 38° Northeast  Level FlightAware Approximate
Fri 06:37:15 PM 32.1737 -80.6897 50° Northeast  Level FlightAware Approximate
Fri 06:38:15 PM 32.2002 -80.6522 37° Northeast  Level FlightAware Approximate
Fri 06:39:15 PM 32.2342 -80.6219 37° Northeast  Level FlightAware Approximate
Fri 06:40:15 PM 32.2682 -80.5916 37° Northeast  Level FlightAware Approximate
Fri 06:41:15 PM 32.3022 -80.5612 37° Northeast  Level FlightAware Approximate
Fri 06:42:15 PM 32.3362 -80.5309 37° Northeast  Level FlightAware Approximate
Fri 06:43:15 PM 32.3702 -80.5005 37° Northeast  Level FlightAware Approximate
Fri 06:44:15 PM 32.4041 -80.4701 37° Northeast  Level FlightAware Approximate
Fri 06:45:15 PM 32.4381 -80.4396 37° Northeast  Level FlightAware Approximate
Fri 06:46:15 PM 32.4721 -80.4092 37° Northeast  Level FlightAware Approximate
Fri 06:47:15 PM 32.5060 -80.3787 37° Northeast  Level FlightAware Approximate
Fri 06:48:15 PM 32.5400 -80.3482 29° Northeast  Level FlightAware Approximate
Fri 06:49:15 PM 32.5748 -80.3252 38° Northeast  Level FlightAware Approximate
Fri 06:50:15 PM 32.6083 -80.2940 38° Northeast  Level FlightAware Approximate
Fri 06:51:15 PM 32.6418 -80.2627 42° Northeast  Level FlightAware Approximate
Fri 06:52:15 PM 32.6731 -80.2290 37° Northeast  Level FlightAware Approximate
Fri 06:53:15 PM 32.7070 -80.1983 37° Northeast  Level FlightAware Approximate
Fri 06:54:15 PM 32.7408 -80.1676 37° Northeast  Level FlightAware Approximate
Fri 06:55:15 PM 32.7746 -80.1368 37° Northeast  Level FlightAware Approximate
Fri 06:56:15 PM 32.8084 -80.1060 38° Northeast  Level FlightAware Approximate
Fri 06:57:15 PM 32.8419 -80.0747 27° Northeast  Level FlightAware Approximate
Fri 06:58:15 PM 32.8799 -80.0518 27° Northeast  Level Estimated
Fri 06:59:15 PM 32.9179 -80.0289 186° South  Level Estimated
Fri 07:00:15 PM 32.8833 -80.0333 338° Northwest  Level FlightAware Approximate
Fri 07:01:15 PM 32.9229 -80.0520 158° South  Level Estimated
Fri 07:02:15 PM 32.8833 -80.0333 158° South  Level FlightAware Approximate

Login

Don't have an account? Register now (free) for customized features, flight alerts, and more!